Time;durP1;ratioP1;P1;durP2;ratioP2;P2;SDS_P1;SDS_P2;PMS_P1;PMS_P2;Temp;Humidity;BMP_temperature;BMP_pressure;BME280_temperature;BME280_humidity;BME280_pressure;Samples;Min_cycle;Max_cycle;Signal;HPM_P1;HPM_P2
2022/10/09 00:01:05;;;;;;;22.52;14.63;;;;;;;18.18;75.97;98562.41;5279806;27;20434;-78
2022/10/09 00:03:33;;;;;;;24.58;14.90;;;;;;;18.46;74.87;98556.22;5299728;27;20052;-78
2022/10/09 00:06:01;;;;;;;25.45;15.77;;;;;;;17.98;77.58;98562.91;5298931;27;20375;-78
2022/10/09 00:08:28;;;;;;;26.17;15.45;;;;;;;18.03;77.65;98560.81;5299436;27;20064;-78
2022/10/09 00:10:55;;;;;;;25.20;15.75;;;;;;;18.17;77.25;98555.53;5299656;27;20049;-78
2022/10/09 00:13:22;;;;;;;22.25;14.30;;;;;;;18.34;76.25;98557.88;5299560;27;20055;-79
2022/10/09 00:15:49;;;;;;;25.45;14.87;;;;;;;18.58;74.97;98555.41;5298819;27;20073;-78
2022/10/09 00:18:17;;;;;;;23.70;15.70;;;;;;;18.13;77.30;98560.13;5299537;27;20061;-78
2022/10/09 00:20:45;;;;;;;24.27;15.30;;;;;;;18.90;73.99;98552.41;5299461;27;20049;-79
2022/10/09 00:23:17;;;;;;;24.92;15.60;;;;;;;18.74;72.85;98556.06;5299052;27;20054;-79
2022/10/09 00:25:52;;;;;;;24.40;15.45;;;;;;;18.84;72.59;98563.31;5299197;27;20057;-79
2022/10/09 00:28:20;;;;;;;24.40;15.05;;;;;;;18.55;73.69;98563.44;5299082;27;20083;-79
2022/10/09 00:30:47;;;;;;;24.42;15.95;;;;;;;18.57;74.81;98558.13;5299448;27;20053;-79
2022/10/09 00:33:15;;;;;;;26.55;16.35;;;;;;;18.19;76.91;98574.56;5299490;27;20053;-78
2022/10/09 00:35:42;;;;;;;26.98;17.02;;;;;;;17.67;80.12;98562.22;5298853;27;20057;-78
2022/10/09 00:38:09;;;;;;;29.48;16.67;;;;;;;17.52;82.25;98573.59;5299598;27;20065;-78
2022/10/09 00:40:37;;;;;;;27.52;16.85;;;;;;;17.58;81.62;98574.06;5299347;27;20060;-78
2022/10/09 00:43:10;;;;;;;31.45;16.87;;;;;;;17.76;80.77;98573.88;5298984;27;20083;-78
2022/10/09 00:45:37;;;;;;;29.45;17.83;;;;;;;17.49;81.70;98582.47;5279619;27;20462;-78
2022/10/09 00:48:06;;;;;;;29.30;16.83;;;;;;;17.48;82.49;98582.56;5299437;27;20072;-78
2022/10/09 00:50:39;;;;;;;32.33;18.23;;;;;;;17.63;81.86;98577.22;5298931;27;20060;-78
2022/10/09 00:53:08;;;;;;;28.73;18.10;;;;;;;17.73;80.57;98584.50;5280004;27;20050;-78
2022/10/09 00:55:35;;;;;;;33.47;18.52;;;;;;;17.93;80.07;98576.25;5279707;27;20099;-78
2022/10/09 00:58:02;;;;;;;34.03;19.45;;;;;;;18.37;78.53;98575.94;5299061;27;20057;-78
2022/10/09 01:00:29;;;;;;;34.05;20.10;;;;;;;17.32;83.48;98572.22;5279919;27;20498;-78
2022/10/09 01:02:56;;;;;;;37.38;20.62;;;;;;;16.74;85.82;98574.00;5299217;27;20045;-78
2022/10/09 01:05:40;;;;;;;34.65;20.00;;;;;;;18.12;79.45;98571.50;5298579;27;20093;-78
2022/10/09 01:08:14;;;;;;;35.50;20.33;;;;;;;18.50;77.47;98574.22;5299353;27;20072;-78
2022/10/09 01:10:57;;;;;;;37.55;22.73;;;;;;;17.86;79.32;98574.94;5298925;27;20045;-78
2022/10/09 01:13:31;;;;;;;35.58;20.62;;;;;;;18.62;77.00;98577.78;5299210;27;20402;-79
2022/10/09 01:16:20;;;;;;;33.00;19.30;;;;;;;17.59;80.38;98577.53;5279611;27;20075;-79
2022/10/09 01:18:57;;;;;;;36.90;21.58;;;;;;;17.86;79.61;98575.81;5280806;27;20066;-78
2022/10/09 01:21:45;;;;;;;39.25;21.92;;;;;;;17.58;81.20;98573.25;5280932;27;20064;-78
2022/10/09 01:24:28;;;;;;;40.55;23.60;;;;;;;17.47;81.87;98575.69;5280744;27;20060;-78
2022/10/09 01:26:59;;;;;;;42.28;23.62;;;;;;;17.67;81.39;98579.66;5300174;27;20068;-78
2022/10/09 01:29:35;;;;;;;43.55;24.67;;;;;;;17.67;81.53;98582.25;5300034;27;20057;-78
2022/10/09 01:32:03;;;;;;;40.25;23.10;;;;;;;17.14;83.53;98582.03;5280515;27;20053;-78
2022/10/09 01:34:30;;;;;;;40.33;22.80;;;;;;;18.12;79.43;98581.94;5280507;27;20069;-78
2022/10/09 01:36:58;;;;;;;39.95;23.12;;;;;;;18.46;77.66;98579.72;5300245;27;20061;-78
2022/10/09 01:39:25;;;;;;;40.00;23.67;;;;;;;18.76;76.50;98589.94;5299753;27;20057;-78
2022/10/09 01:41:53;;;;;;;40.12;22.77;;;;;;;17.52;82.88;98591.87;5280779;27;20053;-78
2022/10/09 01:44:30;;;;;;;36.35;21.95;;;;;;;18.12;80.33;98587.19;5299856;27;20328;-78
2022/10/09 01:46:57;;;;;;;38.75;22.00;;;;;;;18.42;78.53;98586.13;5299705;27;20072;-78
2022/10/09 01:49:43;;;;;;;37.22;21.00;;;;;;;18.74;76.16;98581.38;5280668;27;20088;-78
2022/10/09 01:52:38;;;;;;;40.00;22.52;;;;;;;18.11;79.40;98588.12;5300065;27;20050;-78
2022/10/09 01:55:07;;;;;;;39.08;22.27;;;;;;;17.04;85.36;98593.97;5280760;27;20407;-78
2022/10/09 01:57:47;;;;;;;39.47;22.30;;;;;;;16.51;87.33;98592.72;5300165;27;20061;-78
2022/10/09 02:00:14;;;;;;;40.03;22.08;;;;;;;15.33;93.19;98598.44;5280322;27;20419;-78
2022/10/09 02:02:42;;;;;;;40.90;21.95;;;;;;;15.58;93.51;98605.75;5280683;27;20054;-78
2022/10/09 02:05:12;;;;;;;38.63;22.83;;;;;;;16.34;89.98;98609.31;5299809;27;20046;-78
2022/10/09 02:07:40;;;;;;;44.90;22.85;;;;;;;16.26;89.61;98611.50;5280068;27;20062;-78
2022/10/09 02:10:07;;;;;;;38.78;22.45;;;;;;;16.13;90.13;98613.13;5280703;27;20437;-78
2022/10/09 02:12:38;;;;;;;39.60;22.90;;;;;;;16.59;87.68;98607.88;5280645;27;20050;-78
2022/10/09 02:15:05;;;;;;;39.88;21.95;;;;;;;16.25;89.30;98611.59;5279987;27;20049;-78
2022/10/09 02:17:34;;;;;;;38.38;21.37;;;;;;;17.61;83.15;98625.22;5280683;27;20481;-78
2022/10/09 02:20:06;;;;;;;35.90;20.30;;;;;;;17.87;80.85;98628.84;5299996;27;20651;-78
2022/10/09 02:22:35;;;;;;;36.33;20.23;;;;;;;17.91;80.37;98625.94;5299763;27;20061;-78
2022/10/09 02:25:03;;;;;;;36.03;19.98;;;;;;;17.98;79.30;98625.56;5299786;27;20060;-78
2022/10/09 02:27:31;;;;;;;36.15;19.90;;;;;;;17.60;79.84;98626.16;5299575;27;20057;-78
2022/10/09 02:29:59;;;;;;;35.28;20.23;;;;;;;17.28;81.34;98622.91;5299638;27;20062;-78
2022/10/09 02:32:27;;;;;;;35.17;18.90;;;;;;;17.67;80.57;98622.25;5280641;27;20053;-78
2022/10/09 02:34:54;;;;;;;33.20;19.15;;;;;;;17.58;80.45;98628.03;5299289;27;20050;-78
2022/10/09 02:37:21;;;;;;;34.03;19.87;;;;;;;17.33;81.04;98626.94;5300031;27;20062;-78
2022/10/09 02:39:48;;;;;;;36.22;19.98;;;;;;;17.17;81.78;98634.00;5299937;27;20068;-78
2022/10/09 02:42:14;;;;;;;34.75;19.73;;;;;;;17.11;81.94;98642.16;5299532;27;20049;-78
2022/10/09 02:44:41;;;;;;;31.95;17.83;;;;;;;16.47;84.25;98638.94;5299676;27;20049;-78
2022/10/09 02:47:08;;;;;;;32.92;18.77;;;;;;;17.09;81.59;98646.66;5299789;27;20079;-78
2022/10/09 02:49:35;;;;;;;32.03;17.35;;;;;;;17.51;80.33;98647.59;5299512;27;20489;-78
2022/10/09 02:52:02;;;;;;;32.95;18.30;;;;;;;17.27;80.44;98642.09;5300016;27;20063;-78
2022/10/09 02:54:29;;;;;;;31.12;17.15;;;;;;;17.52;79.53;98647.50;5299615;27;20049;-78
2022/10/09 02:56:56;;;;;;;33.05;17.45;;;;;;;16.54;82.62;98639.44;5299464;27;20328;-78
2022/10/09 02:59:23;;;;;;;29.90;16.17;;;;;;;16.70;83.02;98632.44;5299852;27;20061;-78
2022/10/09 03:01:49;;;;;;;32.67;17.48;;;;;;;17.89;77.70;98634.81;5299792;27;20053;-78
2022/10/09 03:04:16;;;;;;;30.67;17.20;;;;;;;16.84;81.59;98636.84;5299237;27;20049;-78
2022/10/09 03:06:43;;;;;;;27.52;16.40;;;;;;;17.04;80.43;98635.66;5299851;27;20419;-78
2022/10/09 03:09:10;;;;;;;27.85;16.33;;;;;;;18.05;76.39;98642.50;5299891;27;20490;-78
2022/10/09 03:11:37;;;;;;;28.15;16.12;;;;;;;18.59;73.42;98639.84;5299473;27;20050;-78
2022/10/09 03:14:04;;;;;;;28.23;16.17;;;;;;;18.86;71.64;98632.00;5299715;27;20399;-78
2022/10/09 03:16:31;;;;;;;29.70;15.35;;;;;;;19.05;70.27;98648.12;5299805;27;20327;-78
2022/10/09 03:18:58;;;;;;;29.85;15.43;;;;;;;19.25;69.01;98647.62;5299432;27;20429;-78
2022/10/09 03:21:26;;;;;;;28.38;14.50;;;;;;;18.11;72.99;98650.78;5299778;27;20063;-78
2022/10/09 03:23:54;;;;;;;27.35;15.07;;;;;;;17.96;74.57;98656.97;5299306;27;20045;-78
2022/10/09 03:26:23;;;;;;;25.58;14.80;;;;;;;17.82;75.34;98655.22;5299581;27;20057;-78
2022/10/09 03:28:51;;;;;;;28.98;14.75;;;;;;;17.93;75.10;98644.94;5299504;27;20121;-78
2022/10/09 03:31:21;;;;;;;26.25;13.90;;;;;;;17.42;76.26;98656.81;5299390;27;20061;-79
2022/10/09 03:34:09;;;;;;;27.05;13.98;;;;;;;17.06;78.16;98652.87;5299372;27;20091;-79
2022/10/09 03:36:36;;;;;;;23.35;14.45;;;;;;;16.97;78.17;98658.66;5299672;27;20072;-79
2022/10/09 03:39:03;;;;;;;26.80;15.27;;;;;;;16.94;78.84;98661.44;5299192;27;20063;-78
2022/10/09 03:41:30;;;;;;;26.33;15.32;;;;;;;16.99;78.98;98656.78;5299430;27;20109;-78
2022/10/09 03:43:57;;;;;;;26.67;14.55;;;;;;;18.23;73.05;98659.59;5299700;27;20050;-78
2022/10/09 03:46:24;;;;;;;27.17;15.05;;;;;;;18.42;71.94;98665.34;5299053;27;20128;-78
2022/10/09 03:48:51;;;;;;;26.77;14.10;;;;;;;18.40;72.15;98655.94;5299741;27;20061;-78
2022/10/09 03:51:18;;;;;;;24.85;13.35;;;;;;;18.39;72.06;98654.22;5299707;27;20060;-79
2022/10/09 03:53:45;;;;;;;23.95;13.20;;;;;;;19.74;66.51;98673.00;5299276;27;20053;-79
2022/10/09 03:56:11;;;;;;;24.42;13.48;;;;;;;19.35;67.56;98660.88;5299452;27;20060;-79
2022/10/09 03:58:38;;;;;;;29.10;13.20;;;;;;;18.87;68.97;98646.75;5299639;27;20053;-79
2022/10/09 04:01:05;;;;;;;24.33;13.30;;;;;;;19.14;67.73;98663.22;5299259;27;20049;-79
2022/10/09 04:03:32;;;;;;;22.75;13.57;;;;;;;17.96;72.27;98664.78;5299684;27;20060;-79
2022/10/09 04:05:59;;;;;;;23.52;12.73;;;;;;;19.14;67.17;98662.34;5298965;27;20080;-79
2022/10/09 04:08:26;;;;;;;20.50;12.13;;;;;;;18.84;68.55;98668.72;5299631;27;20067;-79
2022/10/09 04:10:57;;;;;;;23.40;12.10;;;;;;;18.93;68.31;98677.72;5299678;27;20103;-78
2022/10/09 04:13:24;;;;;;;20.45;11.43;;;;;;;19.30;66.52;98670.81;5299142;27;20505;-78
2022/10/09 04:15:52;;;;;;;18.30;9.98;;;;;;;18.54;69.45;98671.53;5279854;27;20065;-78
2022/10/09 04:18:19;;;;;;;19.77;10.80;;;;;;;17.03;74.93;98679.16;5299685;27;20060;-78
2022/10/09 04:20:51;;;;;;;20.40;10.52;;;;;;;16.82;76.40;98669.97;5299194;27;20097;-78
2022/10/09 04:23:19;;;;;;;19.98;10.23;;;;;;;16.28;78.66;98671.34;5299470;27;20041;-78
2022/10/09 04:25:46;;;;;;;19.20;10.75;;;;;;;16.67;76.96;98673.44;5299225;27;20073;-78
2022/10/09 04:28:12;;;;;;;21.50;10.30;;;;;;;17.69;72.48;98683.03;5298886;27;20053;-78
2022/10/09 04:30:40;;;;;;;19.73;10.27;;;;;;;17.37;73.75;98676.31;5299618;27;20065;-78
2022/10/09 04:33:07;;;;;;;19.27;10.32;;;;;;;16.98;75.40;98691.59;5299538;27;20049;-78
2022/10/09 04:35:48;;;;;;;18.83;10.50;;;;;;;16.91;75.13;98692.06;5298869;27;20072;-78
2022/10/09 04:38:15;;;;;;;17.40;8.23;;;;;;;16.89;75.04;98681.72;5299583;27;20061;-78
2022/10/09 04:40:41;;;;;;;17.55;8.38;;;;;;;16.30;77.54;98688.53;5299441;27;20131;-78
2022/10/09 04:43:09;;;;;;;15.30;8.00;;;;;;;15.90;79.72;98680.31;5299080;27;20063;-78
2022/10/09 04:45:39;;;;;;;20.27;8.65;;;;;;;16.17;77.85;98682.34;5279712;27;20061;-78
2022/10/09 04:48:06;;;;;;;16.52;8.02;;;;;;;16.50;75.56;98690.03;5299025;27;20072;-78
2022/10/09 04:50:33;;;;;;;18.23;8.38;;;;;;;15.69;78.73;98685.84;5299295;27;20471;-78
2022/10/09 04:53:00;;;;;;;16.48;7.72;;;;;;;15.10;80.99;98674.16;5300337;27;20498;-78
2022/10/09 04:55:26;;;;;;;17.48;9.05;;;;;;;14.92;81.13;98674.19;5299759;27;20072;-78
2022/10/09 04:57:54;;;;;;;12.88;6.62;;;;;;;15.54;78.54;98670.09;5300448;27;20426;-78
2022/10/09 05:00:21;;;;;;;15.73;7.43;;;;;;;15.07;80.07;98664.75;5300192;27;20083;-78
2022/10/09 05:02:48;;;;;;;21.12;8.10;;;;;;;15.82;76.59;98666.87;5299895;27;20056;-78
2022/10/09 05:05:15;;;;;;;17.70;7.10;;;;;;;15.00;79.91;98666.84;5299926;27;20057;-78
2022/10/09 05:07:42;;;;;;;16.73;8.20;;;;;;;14.79;80.63;98675.72;5300273;27;20060;-78
2022/10/09 05:10:09;;;;;;;18.62;7.87;;;;;;;15.41;78.63;98676.00;5299815;27;20497;-78
2022/10/09 05:12:36;;;;;;;16.20;7.15;;;;;;;14.97;79.68;98674.78;5300224;27;20056;-78
2022/10/09 05:15:03;;;;;;;13.48;6.75;;;;;;;16.13;74.48;98681.66;5299958;27;20061;-78
2022/10/09 05:17:30;;;;;;;14.68;6.28;;;;;;;14.86;79.78;98686.62;5300014;27;20057;-78
2022/10/09 05:19:57;;;;;;;15.10;6.05;;;;;;;15.50;76.53;98693.72;5300305;27;20083;-78
2022/10/09 05:22:24;;;;;;;14.07;5.97;;;;;;;15.40;76.43;98697.72;5300250;27;20173;-78
2022/10/09 05:24:51;;;;;;;13.40;6.25;;;;;;;15.70;75.04;98698.75;5299619;27;20105;-78
2022/10/09 05:27:18;;;;;;;14.50;6.55;;;;;;;15.45;76.36;98696.59;5300084;27;20072;-78
2022/10/09 05:29:45;;;;;;;11.57;5.72;;;;;;;16.03;73.94;98710.88;5300274;27;20133;-78
2022/10/09 05:32:11;;;;;;;16.40;6.50;;;;;;;16.12;73.66;98707.78;5299787;27;20060;-78
2022/10/09 05:34:38;;;;;;;13.45;6.68;;;;;;;15.99;74.05;98709.38;5280662;27;20124;-78
2022/10/09 05:37:05;;;;;;;14.63;7.18;;;;;;;17.16;70.05;98713.16;5300140;27;20061;-78
2022/10/09 05:39:34;;;;;;;15.70;7.82;;;;;;;17.32;69.35;98720.91;5280571;27;20186;-78
2022/10/09 05:42:01;;;;;;;18.80;7.82;;;;;;;16.74;71.61;98722.53;5300177;27;20045;-79
2022/10/09 05:44:28;;;;;;;17.20;7.47;;;;;;;16.54;72.52;98728.00;5299593;27;20378;-78
2022/10/09 05:46:55;;;;;;;16.90;8.15;;;;;;;16.44;73.72;98739.84;5300043;27;20062;-78
2022/10/09 05:49:22;;;;;;;15.85;7.65;;;;;;;16.70;73.80;98733.22;5300107;27;20048;-78
2022/10/09 05:51:49;;;;;;;17.05;8.13;;;;;;;17.09;71.27;98737.91;5299696;27;20098;-78
2022/10/09 05:54:16;;;;;;;16.30;7.95;;;;;;;16.79;72.81;98745.72;5299864;27;20061;-78
2022/10/09 05:56:44;;;;;;;16.87;8.30;;;;;;;17.11;71.37;98743.03;5300152;27;20114;-78
2022/10/09 05:59:13;;;;;;;15.82;7.97;;;;;;;17.09;71.80;98750.09;5280337;27;20057;-78
2022/10/09 06:01:42;;;;;;;16.55;7.45;;;;;;;17.44;68.90;98745.41;5280687;27;20060;-78
2022/10/09 06:04:18;;;;;;;18.00;7.68;;;;;;;17.57;68.66;98760.25;5299610;27;20110;-78
2022/10/09 06:06:49;;;;;;;15.15;7.60;;;;;;;18.70;63.11;98758.47;5299627;27;20387;-78
2022/10/09 06:09:20;;;;;;;17.87;7.97;;;;;;;18.25;65.02;98766.59;5300227;27;20060;-78
2022/10/09 06:11:49;;;;;;;12.95;6.93;;;;;;;18.96;62.68;98771.66;5300166;27;20046;-78
2022/10/09 06:14:17;;;;;;;14.18;7.65;;;;;;;19.77;60.20;98780.13;5299715;27;20065;-78
2022/10/09 06:16:44;;;;;;;14.57;7.55;;;;;;;20.28;57.91;98777.47;5300129;27;20071;-78
2022/10/09 06:19:13;;;;;;;16.25;8.32;;;;;;;19.61;60.32;98780.38;5299858;27;20049;-78
2022/10/09 06:21:41;;;;;;;14.73;7.22;;;;;;;20.35;57.75;98783.94;5280664;27;20042;-78
2022/10/09 06:24:15;;;;;;;14.85;7.72;;;;;;;19.68;59.79;98788.66;5299810;27;20076;-78
2022/10/09 06:26:42;;;;;;;17.98;8.13;;;;;;;19.29;61.09;98790.34;5299694;27;20060;-78
2022/10/09 06:29:09;;;;;;;15.43;8.05;;;;;;;19.39;61.00;98797.59;5299399;27;20493;-78
2022/10/09 06:31:37;;;;;;;16.67;8.70;;;;;;;17.28;68.47;98797.66;5299981;27;20046;-78
2022/10/09 06:34:04;;;;;;;15.60;8.40;;;;;;;17.97;67.53;98804.87;5299457;27;20058;-78
2022/10/09 06:36:32;;;;;;;17.02;8.60;;;;;;;19.18;63.26;98805.91;5299894;27;20399;-78
2022/10/09 06:39:01;;;;;;;17.73;8.32;;;;;;;19.83;61.67;98805.09;5299902;27;20407;-78
2022/10/09 06:41:28;;;;;;;15.32;8.20;;;;;;;20.69;58.93;98808.62;5299514;27;20041;-78
2022/10/09 06:43:57;;;;;;;14.73;8.02;;;;;;;20.97;57.60;98817.13;5299789;27;20078;-79
2022/10/09 06:46:30;;;;;;;20.95;8.30;;;;;;;21.27;56.22;98814.91;5280466;27;20062;-79
2022/10/09 06:48:59;;;;;;;15.95;7.95;;;;;;;21.33;55.62;98821.47;5299613;27;20075;-79
2022/10/09 06:51:29;;;;;;;16.12;8.05;;;;;;;21.51;55.08;98822.72;5299975;27;20437;-79
2022/10/09 06:53:58;;;;;;;15.32;8.50;;;;;;;21.56;53.91;98828.44;5300020;27;20061;-79
2022/10/09 06:56:28;;;;;;;17.27;8.48;;;;;;;20.71;56.30;98832.09;5299416;27;20388;-79
2022/10/09 06:58:57;;;;;;;15.35;7.95;;;;;;;20.77;56.28;98829.06;5299983;27;20045;-79
2022/10/09 07:01:26;;;;;;;15.63;7.78;;;;;;;19.38;60.01;98828.16;5299484;27;20045;-79
2022/10/09 07:03:55;;;;;;;15.73;7.53;;;;;;;19.30;61.55;98839.12;5299907;27;20092;-79
2022/10/09 07:06:24;;;;;;;17.92;8.00;;;;;;;18.93;62.93;98842.47;5280400;27;20079;-79
2022/10/09 07:08:53;;;;;;;15.77;8.18;;;;;;;19.27;61.35;98833.25;5299294;27;20063;-79
2022/10/09 07:11:26;;;;;;;15.60;7.85;;;;;;;19.63;59.95;98836.06;5299804;27;20045;-79
2022/10/09 07:13:55;;;;;;;14.95;7.53;;;;;;;18.41;64.27;98843.94;5299923;27;20062;-79
2022/10/09 07:16:27;;;;;;;15.07;7.43;;;;;;;18.41;63.98;98848.31;5299260;27;20057;-79
2022/10/09 07:18:54;;;;;;;14.45;7.05;;;;;;;18.19;65.85;98847.03;5299858;27;20433;-79
2022/10/09 07:21:22;;;;;;;14.45;7.03;;;;;;;19.18;63.30;98850.37;5299998;27;20045;-79
2022/10/09 07:23:49;;;;;;;12.63;6.12;;;;;;;19.54;61.27;98841.03;5299439;27;20057;-79
2022/10/09 07:26:19;;;;;;;15.48;6.53;;;;;;;19.13;61.66;98846.38;5299572;27;20352;-79
2022/10/09 07:28:47;;;;;;;13.43;6.30;;;;;;;19.19;61.40;98854.69;5299220;27;20044;-79
2022/10/09 07:31:14;;;;;;;12.07;5.18;;;;;;;21.09;55.08;98851.16;5299663;27;20056;-79
2022/10/09 07:33:41;;;;;;;12.15;6.00;;;;;;;21.02;54.68;98852.53;5299813;27;20061;-79
2022/10/09 07:36:09;;;;;;;13.43;5.55;;;;;;;21.29;53.62;98854.97;5299406;27;20410;-78
2022/10/09 07:38:35;;;;;;;13.48;5.18;;;;;;;21.24;52.90;98850.97;5299425;27;20320;-78
2022/10/09 07:41:08;;;;;;;12.27;5.37;;;;;;;20.07;58.20;98844.47;5299806;27;20055;-78
2022/10/09 07:43:39;;;;;;;12.02;5.55;;;;;;;20.45;55.71;98855.78;5279960;27;20062;-78
2022/10/09 07:46:10;;;;;;;12.50;5.62;;;;;;;20.76;56.04;98856.22;5299552;27;20326;-78
2022/10/09 07:48:37;;;;;;;10.95;5.30;;;;;;;20.72;55.53;98857.37;5299658;27;20056;-78
2022/10/09 07:51:07;;;;;;;11.45;5.12;;;;;;;20.97;54.29;98859.94;5299283;27;20049;-78
2022/10/09 07:53:34;;;;;;;11.20;4.47;;;;;;;21.19;53.54;98863.63;5299732;27;20061;-78
2022/10/09 07:56:03;;;;;;;12.77;5.03;;;;;;;19.15;58.97;98862.84;5280142;27;20116;-78
2022/10/09 07:58:30;;;;;;;10.23;4.55;;;;;;;19.39;58.17;98858.63;5299255;27;20109;-78
2022/10/09 08:01:03;;;;;;;11.65;4.82;;;;;;;20.69;54.09;98858.44;5299732;27;20106;-78
2022/10/09 08:03:30;;;;;;;11.40;5.00;;;;;;;20.56;55.18;98862.03;5299804;27;20061;-78
2022/10/09 08:05:57;;;;;;;10.45;4.95;;;;;;;20.23;54.84;98853.78;5298861;27;20061;-78
2022/10/09 08:08:24;;;;;;;15.00;5.10;;;;;;;21.05;53.29;98859.34;5299662;27;20049;-78
2022/10/09 08:10:51;;;;;;;16.42;5.72;;;;;;;20.80;53.29;98853.25;5299485;27;20056;-78
2022/10/09 08:13:18;;;;;;;12.15;4.87;;;;;;;20.46;53.93;98854.00;5279864;27;20065;-78
2022/10/09 08:15:45;;;;;;;10.10;4.82;;;;;;;20.32;54.39;98862.78;5299322;27;20061;-78
2022/10/09 08:18:11;;;;;;;12.13;5.07;;;;;;;19.56;56.33;98865.37;5280251;27;20053;-78
2022/10/09 08:20:38;;;;;;;12.60;4.72;;;;;;;19.92;55.34;98865.53;5299173;27;20332;-78
2022/10/09 08:23:05;;;;;;;10.85;4.45;;;;;;;19.81;55.05;98864.59;5299501;27;20067;-78
2022/10/09 08:25:36;;;;;;;11.35;4.10;;;;;;;20.58;53.23;98865.41;5298732;27;20071;-79
2022/10/09 08:28:03;;;;;;;11.48;4.53;;;;;;;20.01;54.31;98866.69;5299564;27;20044;-79
2022/10/09 08:30:30;;;;;;;9.68;3.95;;;;;;;19.37;56.60;98869.19;5299311;27;20086;-79
2022/10/09 08:32:57;;;;;;;10.52;4.40;;;;;;;20.14;54.30;98864.91;5299150;27;20065;-79
2022/10/09 08:35:24;;;;;;;9.73;4.15;;;;;;;20.45;53.22;98871.50;5299209;27;20110;-78
2022/10/09 08:37:52;;;;;;;11.85;4.00;;;;;;;20.71;51.51;98856.53;5299555;27;20057;-78
2022/10/09 08:40:28;;;;;;;11.43;4.47;;;;;;;20.60;52.11;98866.13;5299396;27;20109;-78
2022/10/09 08:43:06;;;;;;;9.60;3.95;;;;;;;20.67;52.21;98873.44;5280187;27;20324;-79
2022/10/09 08:45:34;;;;;;;9.07;4.03;;;;;;;19.60;52.61;98872.09;5299301;27;20053;-79
2022/10/09 08:48:07;;;;;;;9.93;3.90;;;;;;;19.87;54.55;98870.22;5298931;27;20049;-79
2022/10/09 08:50:37;;;;;;;8.50;3.58;;;;;;;20.10;54.33;98878.31;5299502;27;20045;-79
2022/10/09 08:53:30;;;;;;;9.20;4.10;;;;;;;20.93;50.06;98879.44;5299453;27;20057;-79
2022/10/09 08:56:00;;;;;;;9.38;3.42;;;;;;;20.52;49.85;98890.25;5298823;27;20061;-79
2022/10/09 08:58:33;;;;;;;9.23;3.42;;;;;;;20.22;50.64;98886.19;5280194;27;20064;-79
2022/10/09 09:01:14;;;;;;;8.50;3.28;;;;;;;20.23;50.96;98884.38;5279563;27;20049;-79
2022/10/09 09:03:51;;;;;;;9.85;3.40;;;;;;;20.68;49.78;98885.59;5299422;27;20158;-79
2022/10/09 09:06:30;;;;;;;10.45;3.70;;;;;;;20.08;51.29;98886.25;5279681;27;20388;-79
2022/10/09 09:09:18;;;;;;;8.77;3.45;;;;;;;20.66;49.72;98889.28;5298904;27;20061;-78
2022/10/09 09:11:49;;;;;;;9.82;3.53;;;;;;;20.58;49.89;98887.19;5299227;27;20045;-78
2022/10/09 09:14:31;;;;;;;9.38;2.97;;;;;;;20.13;50.55;98885.97;5299019;27;20072;-78
2022/10/09 09:17:04;;;;;;;9.48;3.10;;;;;;;20.19;50.16;98890.78;5298825;27;20057;-78
2022/10/09 09:19:40;;;;;;;8.23;3.10;;;;;;;20.07;50.99;98896.84;5299313;27;20056;-78
2022/10/09 09:22:13;;;;;;;10.05;3.60;;;;;;;19.58;52.30;98884.44;5279581;27;20045;-78
2022/10/09 09:24:51;;;;;;;8.90;3.35;;;;;;;20.28;50.40;98891.91;5279621;27;20121;-78
2022/10/09 09:27:23;;;;;;;10.35;4.20;;;;;;;19.92;51.75;98886.47;5279643;27;20193;-78
2022/10/09 09:30:11;;;;;;;7.40;3.30;;;;;;;19.99;55.01;98894.78;5298485;27;20058;-78
2022/10/09 09:33:13;;;;;;;12.43;3.35;;;;;;;20.85;51.05;98896.69;5299171;27;20463;-78
2022/10/09 09:36:07;;;;;;;7.97;2.92;;;;;;;21.75;47.96;98896.19;5278991;27;20407;-78
2022/10/09 09:38:35;;;;;;;7.45;2.67;;;;;;;20.68;48.29;98898.72;5299684;27;20404;-78
2022/10/09 09:41:22;;;;;;;6.47;2.12;;;;;;;21.39;45.43;98902.41;5300034;27;20053;-78
2022/10/09 09:43:49;;;;;;;4.70;2.17;;;;;;;21.07;44.78;98904.72;5299676;27;20340;-78
2022/10/09 09:46:20;;;;;;;4.78;1.95;;;;;;;21.56;44.81;98903.75;5299885;27;20400;-78
2022/10/09 09:48:48;;;;;;;5.25;1.85;;;;;;;21.64;41.60;98902.25;5300172;27;20093;-78
2022/10/09 09:51:28;;;;;;;4.07;1.60;;;;;;;21.21;41.43;98890.56;5280309;27;20053;-79
2022/10/09 09:53:58;;;;;;;6.75;2.08;;;;;;;20.72;42.50;98894.09;5281028;27;20060;-79
2022/10/09 09:56:33;;;;;;;5.00;1.95;;;;;;;21.14;41.58;98892.78;5280603;27;20065;-79
2022/10/09 09:59:25;;;;;;;3.90;1.80;;;;;;;20.90;43.26;98898.03;5283793;27;20061;-78
2022/10/09 10:02:21;;;;;;;2.95;1.48;;;;;;;20.42;43.60;98889.19;5300101;27;20112;-78
2022/10/09 10:04:49;;;;;;;3.62;1.45;;;;;;;21.32;40.17;98888.03;5299526;27;20045;-78
2022/10/09 10:07:48;;;;;;;4.03;1.48;;;;;;;20.59;40.40;98893.28;5300079;27;20061;-78
2022/10/09 10:10:20;;;;;;;4.47;1.90;;;;;;;19.56;44.58;98896.78;5299695;27;20056;-78
2022/10/09 10:12:50;;;;;;;3.28;1.40;;;;;;;20.59;42.16;98890.66;5299820;27;20053;-78
2022/10/09 10:15:23;;;;;;;4.30;1.95;;;;;;;19.80;42.87;98887.31;5299750;27;20105;-78
2022/10/09 10:18:06;;;;;;;3.95;1.62;;;;;;;20.44;41.65;98885.56;5299732;27;20061;-78
2022/10/09 10:20:43;;;;;;;5.07;2.12;;;;;;;20.59;41.67;98888.87;5300097;27;20053;-78
2022/10/09 10:23:28;;;;;;;5.90;2.20;;;;;;;20.61;42.98;98894.84;5280730;27;20054;-78
2022/10/09 10:25:57;;;;;;;3.22;1.60;;;;;;;20.81;41.61;98877.69;5299568;27;20049;-78
2022/10/09 10:28:28;;;;;;;5.95;2.25;;;;;;;20.95;40.02;98882.81;5299774;27;20057;-79
2022/10/09 10:30:56;;;;;;;4.93;2.03;;;;;;;20.67;41.69;98886.56;5300043;27;20061;-78
2022/10/09 10:33:28;;;;;;;4.72;1.80;;;;;;;20.78;42.27;98889.25;5299504;27;20426;-78
2022/10/09 10:35:57;;;;;;;3.03;1.65;;;;;;;20.46;40.13;98872.34;5280465;27;20319;-78
2022/10/09 10:38:46;;;;;;;4.93;1.80;;;;;;;20.15;41.85;98881.44;5280757;27;20075;-78
2022/10/09 10:41:20;;;;;;;8.63;2.33;;;;;;;20.80;41.62;98889.16;5299785;27;20053;-78
2022/10/09 10:43:50;;;;;;;4.12;1.62;;;;;;;21.18;42.39;98893.44;5300040;27;20489;-78
2022/10/09 10:46:48;;;;;;;4.80;1.80;;;;;;;21.48;39.47;98892.97;5280075;27;20369;-78
2022/10/09 10:49:20;;;;;;;5.45;2.15;;;;;;;21.95;38.83;98894.69;5280290;27;20079;-78
2022/10/09 10:52:15;;;;;;;3.30;1.70;;;;;;;21.11;41.45;98893.03;5280503;27;20081;-78
2022/10/09 10:54:58;;;;;;;3.17;1.20;;;;;;;21.52;39.39;98886.56;5299352;27;20050;-78
2022/10/09 10:57:38;;;;;;;2.90;1.02;;;;;;;21.17;37.53;98897.84;5280396;27;20102;-78
2022/10/09 11:00:07;;;;;;;1.83;1.10;;;;;;;20.64;36.27;98888.56;5299556;27;20400;-78
2022/10/09 11:02:56;;;;;;;1.83;1.10;;;;;;;20.47;35.83;98874.84;5280476;27;20079;-78
2022/10/09 11:05:25;;;;;;;2.15;0.85;;;;;;;20.33;35.29;98885.44;5299669;27;20058;-78
2022/10/09 11:08:02;;;;;;;3.47;1.00;;;;;;;20.90;35.60;98884.91;5299582;27;20090;-78
2022/10/09 11:10:41;;;;;;;1.77;1.00;;;;;;;19.99;36.30;98872.94;5299993;27;20403;-78
2022/10/09 11:13:20;;;;;;;3.00;1.08;;;;;;;21.10;34.89;98880.84;5299949;27;20076;-78
2022/10/09 11:16:02;;;;;;;3.47;1.20;;;;;;;20.96;35.15;98879.25;5279967;27;20089;-78
2022/10/09 11:18:46;;;;;;;4.18;1.45;;;;;;;21.11;35.37;98879.91;5299897;27;20518;-78
2022/10/09 11:21:42;;;;;;;2.95;1.30;;;;;;;21.57;35.81;98879.16;5299543;27;20430;-78
2022/10/09 11:24:30;;;;;;;2.15;1.20;;;;;;;21.65;34.13;98861.06;5299507;27;20072;-78
2022/10/09 11:27:03;;;;;;;4.32;1.27;;;;;;;20.61;37.01;98870.41;5299816;27;20057;-79
2022/10/09 11:29:42;;;;;;;2.40;1.12;;;;;;;21.24;36.03;98869.34;5299038;27;20433;-78
2022/10/09 11:32:17;;;;;;;4.78;1.67;;;;;;;20.47;37.06;98866.97;5299760;27;20076;-78
2022/10/09 11:34:52;;;;;;;7.25;1.90;;;;;;;21.01;38.37;98869.25;5299674;27;20403;-78
2022/10/09 11:37:26;;;;;;;4.35;1.75;;;;;;;21.95;38.28;98868.41;5299519;27;20406;-78
2022/10/09 11:39:54;;;;;;;2.37;1.30;;;;;;;22.72;36.23;98871.19;5280514;27;20408;-78
2022/10/09 11:42:23;;;;;;;1.95;1.30;;;;;;;21.74;36.48;98873.50;5299467;27;20053;-78